Lowell Highlands, MA

10 Minute Time Series

11-15-2019 01:20 PM

TimeTempHumidityDewpointBarometerWindSpeedWindGustWind DirRain
12:10 AM30.1°F84%25.9°F30.237 inHg0 mph1 mph N/A (N/A)0.00 in
12:20 AM29.9°F84%25.7°F30.233 inHg0 mph1 mph N/A (N/A)0.00 in
12:30 AM29.7°F84%25.5°F30.229 inHg1 mph3 mph248° (WSW)0.00 in
12:40 AM29.5°F84%25.3°F30.227 inHg0 mph1 mph N/A (N/A)0.00 in
12:50 AM29.3°F84%25.1°F30.224 inHg0 mph1 mph N/A (N/A)0.00 in
01:00 AM28.9°F85%25.0°F30.221 inHg1 mph2 mph248° (WSW)0.00 in
01:10 AM28.7°F86%25.1°F30.222 inHg0 mph2 mph N/A (N/A)0.00 in
01:20 AM28.6°F86%25.0°F30.221 inHg1 mph3 mph248° (WSW)0.00 in
01:30 AM28.6°F87%25.2°F30.221 inHg2 mph4 mph158° (SSE)0.00 in
01:40 AM28.6°F87%25.2°F30.218 inHg1 mph4 mph158° (SSE)0.00 in
01:50 AM28.6°F88%25.5°F30.219 inHg1 mph3 mph158° (SSE)0.00 in
02:00 AM28.5°F88%25.4°F30.216 inHg2 mph3 mph158° (SSE)0.00 in
02:10 AM28.5°F88%25.4°F30.213 inHg2 mph3 mph158° (SSE)0.00 in
02:20 AM28.5°F88%25.4°F30.208 inHg2 mph3 mph158° (SSE)0.00 in
02:30 AM28.5°F88%25.4°F30.206 inHg1 mph2 mph158° (SSE)0.00 in
02:40 AM28.5°F88%25.4°F30.203 inHg0 mph2 mph N/A (N/A)0.00 in
02:50 AM28.3°F89%25.5°F30.197 inHg1 mph2 mph158° (SSE)0.00 in
03:00 AM28.1°F89%25.3°F30.196 inHg2 mph3 mph158° (SSE)0.00 in
03:10 AM28.1°F89%25.3°F30.192 inHg2 mph3 mph158° (SSE)0.00 in
03:20 AM28.1°F89%25.3°F30.192 inHg2 mph3 mph158° (SSE)0.00 in
03:30 AM28.2°F90%25.7°F30.188 inHg1 mph3 mph158° (SSE)0.00 in
03:40 AM28.3°F90%25.8°F30.189 inHg1 mph2 mph158° (SSE)0.00 in
03:50 AM28.4°F89%25.6°F30.187 inHg0 mph2 mph N/A (N/A)0.00 in
04:00 AM28.4°F89%25.6°F30.186 inHg1 mph2 mph158° (SSE)0.00 in
04:10 AM28.5°F89%25.7°F30.190 inHg1 mph2 mph158° (SSE)0.00 in
04:20 AM28.6°F89%25.8°F30.186 inHg1 mph2 mph158° (SSE)0.00 in
04:30 AM28.7°F89%25.9°F30.192 inHg1 mph2 mph158° (SSE)0.00 in
04:40 AM28.7°F88%25.6°F30.187 inHg1 mph2 mph158° (SSE)0.00 in
04:50 AM28.7°F88%25.6°F30.181 inHg1 mph2 mph158° (SSE)0.00 in
05:00 AM28.7°F88%25.6°F30.184 inHg0 mph1 mph N/A (N/A)0.00 in
05:10 AM28.7°F87%25.3°F30.184 inHg1 mph2 mph158° (SSE)0.00 in
05:20 AM28.7°F87%25.3°F30.186 inHg1 mph2 mph158° (SSE)0.00 in
05:30 AM28.7°F86%25.1°F30.186 inHg2 mph3 mph158° (SSE)0.00 in
05:40 AM28.8°F86%25.2°F30.184 inHg2 mph3 mph180° (S)0.00 in
05:50 AM28.8°F85%24.9°F30.182 inHg1 mph4 mph180° (S)0.00 in
06:00 AM28.8°F84%24.6°F30.185 inHg1 mph3 mph180° (S)0.00 in
06:10 AM28.9°F84%24.7°F30.181 inHg1 mph4 mph180° (S)0.00 in
06:20 AM29.0°F83%24.5°F30.179 inHg1 mph4 mph202° (SSW)0.00 in
06:30 AM29.2°F83%24.7°F30.179 inHg2 mph3 mph180° (S)0.00 in
06:40 AM29.2°F82%24.4°F30.177 inHg2 mph4 mph180° (S)0.00 in
06:50 AM29.1°F82%24.3°F30.175 inHg2 mph3 mph180° (S)0.00 in
07:00 AM29.1°F81%24.0°F30.174 inHg2 mph4 mph202° (SSW)0.00 in
07:10 AM29.2°F81%24.1°F30.173 inHg2 mph4 mph225° (SW)0.00 in
07:20 AM29.6°F80%24.2°F30.174 inHg2 mph4 mph202° (SSW)0.00 in
07:30 AM30.0°F79%24.3°F30.174 inHg2 mph3 mph202° (SSW)0.00 in
07:40 AM30.4°F78%24.4°F30.173 inHg2 mph3 mph202° (SSW)0.00 in
07:50 AM31.1°F77%24.7°F30.173 inHg1 mph5 mph202° (SSW)0.00 in
08:00 AM31.8°F76%25.1°F30.170 inHg1 mph3 mph202° (SSW)0.00 in
08:10 AM32.8°F75%25.8°F30.170 inHg2 mph4 mph202° (SSW)0.00 in
08:20 AM33.8°F72%25.7°F30.166 inHg2 mph5 mph202° (SSW)0.00 in
08:30 AM34.6°F70%25.8°F30.159 inHg2 mph5 mph202° (SSW)0.00 in
08:40 AM35.6°F69%26.4°F30.158 inHg2 mph5 mph202° (SSW)0.00 in
08:50 AM36.3°F65%25.7°F30.154 inHg3 mph7 mph225° (SW)0.00 in
09:00 AM37.1°F63%25.7°F30.147 inHg3 mph8 mph225° (SW)0.00 in
09:10 AM37.9°F62%26.1°F30.144 inHg3 mph8 mph225° (SW)0.00 in
09:20 AM38.9°F60%26.2°F30.139 inHg3 mph7 mph225° (SW)0.00 in
09:30 AM39.7°F59%26.6°F30.139 inHg3 mph8 mph225° (SW)0.00 in
09:40 AM40.6°F57%26.6°F30.135 inHg3 mph7 mph225° (SW)0.00 in
09:50 AM41.5°F56%27.0°F30.131 inHg3 mph7 mph180° (S)0.00 in
10:00 AM42.3°F54%26.9°F30.126 inHg3 mph6 mph225° (SW)0.00 in
10:10 AM43.5°F52%27.1°F30.120 inHg3 mph10 mph225° (SW)0.00 in
10:20 AM44.2°F48%25.8°F30.112 inHg6 mph12 mph225° (SW)0.00 in
10:30 AM44.6°F48%26.1°F30.104 inHg5 mph12 mph248° (WSW)0.00 in
10:40 AM45.0°F47%26.0°F30.100 inHg6 mph11 mph225° (SW)0.00 in
10:50 AM46.3°F46%26.7°F30.094 inHg4 mph10 mph225° (SW)0.00 in
11:00 AM46.2°F44%25.5°F30.091 inHg6 mph13 mph248° (WSW)0.00 in
11:10 AM45.9°F45%25.8°F30.086 inHg7 mph13 mph225° (SW)0.00 in
11:20 AM46.3°F45%26.1°F30.079 inHg6 mph13 mph225° (SW)0.00 in
11:30 AM47.2°F44%26.4°F30.080 inHg5 mph13 mph225° (SW)0.00 in
11:40 AM47.1°F43%25.8°F30.075 inHg6 mph16 mph225° (SW)0.00 in
11:50 AM46.9°F44%26.1°F30.075 inHg7 mph16 mph248° (WSW)0.00 in
12:00 PM47.2°F42%25.3°F30.072 inHg6 mph15 mph248° (WSW)0.00 in
12:10 PM47.5°F43%26.1°F30.070 inHg6 mph14 mph225° (SW)0.00 in
12:20 PM47.7°F41%25.2°F30.065 inHg6 mph13 mph248° (WSW)0.00 in
12:30 PM47.6°F41%25.1°F30.060 inHg6 mph15 mph248° (WSW)0.00 in
12:40 PM47.8°F41%25.3°F30.053 inHg6 mph11 mph248° (WSW)0.00 in
12:50 PM48.2°F41%25.6°F30.050 inHg5 mph11 mph225° (SW)0.00 in
01:00 PM48.7°F40%25.5°F30.047 inHg5 mph13 mph225° (SW)0.00 in
01:10 PM49.2°F39%25.3°F30.048 inHg4 mph7 mph225° (SW)0.00 in
01:20 PM49.4°F39%25.5°F30.042 inHg4 mph11 mph225° (SW)0.00 in